sensor_id;sensor_type;location;lat;lon;timestamp;P1;durP1;ratioP1;P2;durP2;ratioP2
75062;SDS011;63981;51.052;13.754;2023-08-30T00:00:45;2.25;;;0.80;;
75062;SDS011;63981;51.052;13.754;2023-08-30T00:03:11;0.98;;;0.85;;
75062;SDS011;63981;51.052;13.754;2023-08-30T00:05:38;1.77;;;0.70;;
75062;SDS011;63981;51.052;13.754;2023-08-30T00:08:05;1.13;;;1.00;;
75062;SDS011;63981;51.052;13.754;2023-08-30T00:10:31;1.90;;;1.00;;
75062;SDS011;63981;51.052;13.754;2023-08-30T00:12:57;2.25;;;1.00;;
75062;SDS011;63981;51.052;13.754;2023-08-30T00:15:24;1.33;;;0.85;;
75062;SDS011;63981;51.052;13.754;2023-08-30T00:17:50;2.85;;;1.35;;
75062;SDS011;63981;51.052;13.754;2023-08-30T00:20:20;1.38;;;0.70;;
75062;SDS011;63981;51.052;13.754;2023-08-30T00:22:47;2.00;;;0.90;;
75062;SDS011;63981;51.052;13.754;2023-08-30T00:25:16;1.33;;;1.02;;
75062;SDS011;63981;51.052;13.754;2023-08-30T00:27:42;1.98;;;0.95;;
75062;SDS011;63981;51.052;13.754;2023-08-30T00:30:10;1.80;;;1.02;;
75062;SDS011;63981;51.052;13.754;2023-08-30T00:32:36;1.60;;;0.90;;
75062;SDS011;63981;51.052;13.754;2023-08-30T00:35:02;1.77;;;0.82;;
75062;SDS011;63981;51.052;13.754;2023-08-30T00:37:29;1.40;;;0.90;;
75062;SDS011;63981;51.052;13.754;2023-08-30T00:39:55;1.40;;;1.00;;
75062;SDS011;63981;51.052;13.754;2023-08-30T00:42:21;1.50;;;0.90;;
75062;SDS011;63981;51.052;13.754;2023-08-30T00:44:48;2.28;;;1.17;;
75062;SDS011;63981;51.052;13.754;2023-08-30T00:47:15;1.60;;;0.85;;
75062;SDS011;63981;51.052;13.754;2023-08-30T00:49:41;1.90;;;1.05;;
75062;SDS011;63981;51.052;13.754;2023-08-30T00:52:07;1.13;;;0.73;;
75062;SDS011;63981;51.052;13.754;2023-08-30T00:54:35;2.45;;;1.00;;
75062;SDS011;63981;51.052;13.754;2023-08-30T00:57:02;2.05;;;0.93;;
75062;SDS011;63981;51.052;13.754;2023-08-30T00:59:28;1.63;;;1.00;;
75062;SDS011;63981;51.052;13.754;2023-08-30T01:01:57;2.70;;;1.27;;
75062;SDS011;63981;51.052;13.754;2023-08-30T01:04:25;1.42;;;0.85;;
75062;SDS011;63981;51.052;13.754;2023-08-30T01:06:51;2.90;;;1.08;;
75062;SDS011;63981;51.052;13.754;2023-08-30T01:09:17;1.45;;;1.00;;
75062;SDS011;63981;51.052;13.754;2023-08-30T01:14:18;2.95;;;1.30;;
75062;SDS011;63981;51.052;13.754;2023-08-30T01:16:48;3.15;;;1.20;;
75062;SDS011;63981;51.052;13.754;2023-08-30T01:22:11;2.28;;;1.40;;
75062;SDS011;63981;51.052;13.754;2023-08-30T01:27:40;1.80;;;1.30;;
75062;SDS011;63981;51.052;13.754;2023-08-30T01:30:09;2.47;;;0.95;;
75062;SDS011;63981;51.052;13.754;2023-08-30T01:32:36;1.77;;;1.10;;
75062;SDS011;63981;51.052;13.754;2023-08-30T01:35:04;1.52;;;1.05;;
75062;SDS011;63981;51.052;13.754;2023-08-30T01:37:32;2.30;;;1.13;;
75062;SDS011;63981;51.052;13.754;2023-08-30T01:39:59;1.40;;;1.10;;
75062;SDS011;63981;51.052;13.754;2023-08-30T01:42:27;2.13;;;1.35;;
75062;SDS011;63981;51.052;13.754;2023-08-30T01:44:54;2.15;;;1.25;;
75062;SDS011;63981;51.052;13.754;2023-08-30T01:47:23;1.42;;;1.10;;
75062;SDS011;63981;51.052;13.754;2023-08-30T01:49:53;2.58;;;1.20;;
75062;SDS011;63981;51.052;13.754;2023-08-30T01:52:21;1.88;;;1.10;;
75062;SDS011;63981;51.052;13.754;2023-08-30T01:54:53;4.03;;;1.02;;
75062;SDS011;63981;51.052;13.754;2023-08-30T01:57:19;1.60;;;1.08;;
75062;SDS011;63981;51.052;13.754;2023-08-30T01:59:45;1.75;;;1.08;;
75062;SDS011;63981;51.052;13.754;2023-08-30T02:02:11;2.25;;;1.48;;
75062;SDS011;63981;51.052;13.754;2023-08-30T02:04:37;1.83;;;1.30;;
75062;SDS011;63981;51.052;13.754;2023-08-30T02:07:11;1.40;;;1.30;;
75062;SDS011;63981;51.052;13.754;2023-08-30T02:09:55;2.53;;;1.35;;
75062;SDS011;63981;51.052;13.754;2023-08-30T02:12:24;2.60;;;1.25;;
75062;SDS011;63981;51.052;13.754;2023-08-30T02:14:57;2.95;;;1.40;;
75062;SDS011;63981;51.052;13.754;2023-08-30T02:17:24;1.40;;;1.02;;
75062;SDS011;63981;51.052;13.754;2023-08-30T02:19:50;2.95;;;2.00;;
75062;SDS011;63981;51.052;13.754;2023-08-30T02:22:18;1.63;;;1.20;;
75062;SDS011;63981;51.052;13.754;2023-08-30T02:24:45;1.85;;;1.48;;
75062;SDS011;63981;51.052;13.754;2023-08-30T02:27:11;2.42;;;1.52;;
75062;SDS011;63981;51.052;13.754;2023-08-30T02:29:38;4.43;;;1.90;;
75062;SDS011;63981;51.052;13.754;2023-08-30T02:32:05;3.38;;;1.88;;
75062;SDS011;63981;51.052;13.754;2023-08-30T02:34:32;1.80;;;1.30;;
75062;SDS011;63981;51.052;13.754;2023-08-30T02:36:58;1.80;;;1.35;;
75062;SDS011;63981;51.052;13.754;2023-08-30T02:39:24;3.40;;;1.10;;
75062;SDS011;63981;51.052;13.754;2023-08-30T02:41:50;2.42;;;1.33;;
75062;SDS011;63981;51.052;13.754;2023-08-30T02:44:16;2.75;;;1.45;;
75062;SDS011;63981;51.052;13.754;2023-08-30T02:46:42;1.92;;;1.02;;
75062;SDS011;63981;51.052;13.754;2023-08-30T02:49:08;2.40;;;1.55;;
75062;SDS011;63981;51.052;13.754;2023-08-30T02:51:37;2.45;;;1.33;;
75062;SDS011;63981;51.052;13.754;2023-08-30T02:54:03;2.28;;;1.10;;
75062;SDS011;63981;51.052;13.754;2023-08-30T02:56:29;1.33;;;1.15;;
75062;SDS011;63981;51.052;13.754;2023-08-30T02:58:55;1.77;;;1.35;;
75062;SDS011;63981;51.052;13.754;2023-08-30T03:01:21;1.80;;;1.20;;
75062;SDS011;63981;51.052;13.754;2023-08-30T03:03:48;2.30;;;1.50;;
75062;SDS011;63981;51.052;13.754;2023-08-30T03:06:17;3.00;;;1.60;;
75062;SDS011;63981;51.052;13.754;2023-08-30T03:08:43;2.72;;;1.50;;
75062;SDS011;63981;51.052;13.754;2023-08-30T03:11:11;4.45;;;1.50;;
75062;SDS011;63981;51.052;13.754;2023-08-30T03:13:43;2.17;;;1.42;;
75062;SDS011;63981;51.052;13.754;2023-08-30T03:16:13;3.60;;;1.50;;
75062;SDS011;63981;51.052;13.754;2023-08-30T03:18:41;2.65;;;1.63;;
75062;SDS011;63981;51.052;13.754;2023-08-30T03:21:07;3.10;;;1.48;;
75062;SDS011;63981;51.052;13.754;2023-08-30T03:23:34;3.28;;;1.42;;
75062;SDS011;63981;51.052;13.754;2023-08-30T03:26:08;1.77;;;1.40;;
75062;SDS011;63981;51.052;13.754;2023-08-30T03:28:35;3.95;;;1.48;;
75062;SDS011;63981;51.052;13.754;2023-08-30T03:31:02;2.80;;;1.85;;
75062;SDS011;63981;51.052;13.754;2023-08-30T03:33:28;3.05;;;1.58;;
75062;SDS011;63981;51.052;13.754;2023-08-30T03:35:57;2.70;;;1.75;;
75062;SDS011;63981;51.052;13.754;2023-08-30T03:38:24;4.03;;;1.45;;
75062;SDS011;63981;51.052;13.754;2023-08-30T03:40:52;2.25;;;1.50;;
75062;SDS011;63981;51.052;13.754;2023-08-30T03:43:19;3.70;;;1.55;;
75062;SDS011;63981;51.052;13.754;2023-08-30T03:45:46;2.78;;;1.48;;
75062;SDS011;63981;51.052;13.754;2023-08-30T03:48:12;2.40;;;1.80;;
75062;SDS011;63981;51.052;13.754;2023-08-30T03:50:38;2.15;;;1.50;;
75062;SDS011;63981;51.052;13.754;2023-08-30T03:53:04;2.75;;;1.35;;
75062;SDS011;63981;51.052;13.754;2023-08-30T03:55:30;2.65;;;1.40;;
75062;SDS011;63981;51.052;13.754;2023-08-30T03:57:57;4.40;;;1.50;;
75062;SDS011;63981;51.052;13.754;2023-08-30T04:00:23;2.72;;;1.83;;
75062;SDS011;63981;51.052;13.754;2023-08-30T04:02:49;2.92;;;1.75;;
75062;SDS011;63981;51.052;13.754;2023-08-30T04:05:15;3.22;;;1.50;;
75062;SDS011;63981;51.052;13.754;2023-08-30T04:07:41;2.85;;;1.45;;
75062;SDS011;63981;51.052;13.754;2023-08-30T04:10:08;2.45;;;1.50;;
75062;SDS011;63981;51.052;13.754;2023-08-30T04:12:35;3.00;;;1.70;;
75062;SDS011;63981;51.052;13.754;2023-08-30T04:15:01;2.22;;;1.50;;
75062;SDS011;63981;51.052;13.754;2023-08-30T04:17:27;2.50;;;1.30;;
75062;SDS011;63981;51.052;13.754;2023-08-30T04:19:54;1.23;;;1.13;;
75062;SDS011;63981;51.052;13.754;2023-08-30T04:22:20;2.13;;;1.08;;
75062;SDS011;63981;51.052;13.754;2023-08-30T04:24:46;2.83;;;1.30;;
75062;SDS011;63981;51.052;13.754;2023-08-30T04:27:13;3.03;;;1.10;;
75062;SDS011;63981;51.052;13.754;2023-08-30T04:29:39;1.98;;;1.25;;
75062;SDS011;63981;51.052;13.754;2023-08-30T04:32:05;2.25;;;1.50;;
75062;SDS011;63981;51.052;13.754;2023-08-30T04:34:31;5.68;;;1.17;;
75062;SDS011;63981;51.052;13.754;2023-08-30T04:36:58;1.55;;;1.05;;
75062;SDS011;63981;51.052;13.754;2023-08-30T04:39:24;2.08;;;1.15;;
75062;SDS011;63981;51.052;13.754;2023-08-30T04:41:51;2.17;;;1.77;;
75062;SDS011;63981;51.052;13.754;2023-08-30T04:44:18;2.97;;;1.25;;
75062;SDS011;63981;51.052;13.754;2023-08-30T04:46:45;2.17;;;1.40;;
75062;SDS011;63981;51.052;13.754;2023-08-30T04:49:12;1.98;;;1.27;;
75062;SDS011;63981;51.052;13.754;2023-08-30T04:51:38;2.17;;;1.25;;
75062;SDS011;63981;51.052;13.754;2023-08-30T04:54:05;1.92;;;1.27;;
75062;SDS011;63981;51.052;13.754;2023-08-30T04:56:31;3.13;;;1.45;;
75062;SDS011;63981;51.052;13.754;2023-08-30T04:58:58;1.80;;;1.38;;
75062;SDS011;63981;51.052;13.754;2023-08-30T05:01:28;2.40;;;1.38;;
75062;SDS011;63981;51.052;13.754;2023-08-30T05:03:57;2.20;;;1.38;;
75062;SDS011;63981;51.052;13.754;2023-08-30T05:06:23;1.92;;;1.27;;
75062;SDS011;63981;51.052;13.754;2023-08-30T05:08:49;1.98;;;1.10;;
75062;SDS011;63981;51.052;13.754;2023-08-30T05:11:15;3.03;;;1.88;;
75062;SDS011;63981;51.052;13.754;2023-08-30T05:13:42;3.00;;;1.40;;
75062;SDS011;63981;51.052;13.754;2023-08-30T05:16:08;1.98;;;1.35;;
75062;SDS011;63981;51.052;13.754;2023-08-30T05:18:34;2.13;;;1.25;;
75062;SDS011;63981;51.052;13.754;2023-08-30T05:21:01;2.13;;;1.50;;
75062;SDS011;63981;51.052;13.754;2023-08-30T05:23:30;2.63;;;1.13;;
75062;SDS011;63981;51.052;13.754;2023-08-30T05:25:57;2.00;;;1.40;;
75062;SDS011;63981;51.052;13.754;2023-08-30T05:28:23;3.03;;;1.95;;
75062;SDS011;63981;51.052;13.754;2023-08-30T05:30:50;2.47;;;1.30;;
75062;SDS011;63981;51.052;13.754;2023-08-30T05:33:48;1.90;;;1.45;;
75062;SDS011;63981;51.052;13.754;2023-08-30T05:36:47;1.40;;;1.17;;
75062;SDS011;63981;51.052;13.754;2023-08-30T05:39:35;3.38;;;1.33;;
75062;SDS011;63981;51.052;13.754;2023-08-30T05:42:01;3.35;;;1.40;;
75062;SDS011;63981;51.052;13.754;2023-08-30T05:44:28;4.22;;;1.80;;
75062;SDS011;63981;51.052;13.754;2023-08-30T05:46:55;2.60;;;1.90;;
75062;SDS011;63981;51.052;13.754;2023-08-30T05:49:21;1.92;;;1.52;;
75062;SDS011;63981;51.052;13.754;2023-08-30T05:51:47;2.50;;;1.58;;
75062;SDS011;63981;51.052;13.754;2023-08-30T05:54:13;2.13;;;1.50;;
75062;SDS011;63981;51.052;13.754;2023-08-30T05:56:40;1.63;;;1.33;;
75062;SDS011;63981;51.052;13.754;2023-08-30T05:59:07;2.60;;;1.80;;
75062;SDS011;63981;51.052;13.754;2023-08-30T06:01:33;2.95;;;1.70;;
75062;SDS011;63981;51.052;13.754;2023-08-30T06:04:00;3.42;;;1.65;;
75062;SDS011;63981;51.052;13.754;2023-08-30T06:06:26;2.42;;;1.60;;
75062;SDS011;63981;51.052;13.754;2023-08-30T06:08:53;5.88;;;1.70;;
75062;SDS011;63981;51.052;13.754;2023-08-30T06:11:19;2.80;;;1.80;;
75062;SDS011;63981;51.052;13.754;2023-08-30T06:13:45;2.10;;;1.50;;
75062;SDS011;63981;51.052;13.754;2023-08-30T06:16:11;3.38;;;1.17;;
75062;SDS011;63981;51.052;13.754;2023-08-30T06:18:37;3.58;;;1.60;;
75062;SDS011;63981;51.052;13.754;2023-08-30T06:21:07;3.90;;;1.60;;
75062;SDS011;63981;51.052;13.754;2023-08-30T06:23:33;2.40;;;1.80;;
75062;SDS011;63981;51.052;13.754;2023-08-30T06:26:00;3.63;;;1.90;;
75062;SDS011;63981;51.052;13.754;2023-08-30T06:28:26;2.45;;;1.77;;
75062;SDS011;63981;51.052;13.754;2023-08-30T06:30:52;3.35;;;1.60;;
75062;SDS011;63981;51.052;13.754;2023-08-30T06:33:18;2.90;;;2.05;;
75062;SDS011;63981;51.052;13.754;2023-08-30T06:35:47;2.53;;;1.63;;
75062;SDS011;63981;51.052;13.754;2023-08-30T06:38:13;2.17;;;1.20;;
75062;SDS011;63981;51.052;13.754;2023-08-30T06:40:43;4.15;;;1.77;;
75062;SDS011;63981;51.052;13.754;2023-08-30T06:43:10;6.78;;;2.00;;
75062;SDS011;63981;51.052;13.754;2023-08-30T06:45:38;4.60;;;1.95;;
75062;SDS011;63981;51.052;13.754;2023-08-30T06:48:05;2.22;;;1.40;;
75062;SDS011;63981;51.052;13.754;2023-08-30T06:50:33;2.58;;;1.58;;
75062;SDS011;63981;51.052;13.754;2023-08-30T06:53:00;9.23;;;2.22;;
75062;SDS011;63981;51.052;13.754;2023-08-30T06:55:27;4.13;;;1.80;;
75062;SDS011;63981;51.052;13.754;2023-08-30T06:57:53;4.15;;;2.13;;
75062;SDS011;63981;51.052;13.754;2023-08-30T07:00:19;6.38;;;2.33;;
75062;SDS011;63981;51.052;13.754;2023-08-30T07:02:45;3.05;;;1.98;;
75062;SDS011;63981;51.052;13.754;2023-08-30T07:05:12;3.03;;;2.22;;
75062;SDS011;63981;51.052;13.754;2023-08-30T07:07:38;3.80;;;2.15;;
75062;SDS011;63981;51.052;13.754;2023-08-30T07:10:05;4.40;;;2.33;;
75062;SDS011;63981;51.052;13.754;2023-08-30T07:12:31;4.45;;;2.60;;
75062;SDS011;63981;51.052;13.754;2023-08-30T07:14:58;4.53;;;2.50;;
75062;SDS011;63981;51.052;13.754;2023-08-30T07:17:24;4.45;;;2.95;;
75062;SDS011;63981;51.052;13.754;2023-08-30T07:19:50;3.80;;;2.63;;
75062;SDS011;63981;51.052;13.754;2023-08-30T07:22:16;4.68;;;3.17;;
75062;SDS011;63981;51.052;13.754;2023-08-30T07:24:43;3.53;;;2.75;;
75062;SDS011;63981;51.052;13.754;2023-08-30T07:27:10;3.50;;;2.90;;
75062;SDS011;63981;51.052;13.754;2023-08-30T07:29:38;4.82;;;2.92;;
75062;SDS011;63981;51.052;13.754;2023-08-30T07:32:06;4.47;;;2.90;;
75062;SDS011;63981;51.052;13.754;2023-08-30T07:34:34;3.33;;;2.95;;
75062;SDS011;63981;51.052;13.754;2023-08-30T07:37:00;4.15;;;2.88;;
75062;SDS011;63981;51.052;13.754;2023-08-30T07:39:26;3.67;;;2.75;;
75062;SDS011;63981;51.052;13.754;2023-08-30T07:41:52;4.90;;;3.15;;
75062;SDS011;63981;51.052;13.754;2023-08-30T07:44:18;4.00;;;2.72;;
75062;SDS011;63981;51.052;13.754;2023-08-30T07:46:46;2.97;;;2.25;;
75062;SDS011;63981;51.052;13.754;2023-08-30T07:49:12;3.38;;;2.90;;
75062;SDS011;63981;51.052;13.754;2023-08-30T07:51:38;4.05;;;2.22;;
75062;SDS011;63981;51.052;13.754;2023-08-30T07:54:04;3.38;;;2.20;;
75062;SDS011;63981;51.052;13.754;2023-08-30T07:56:30;2.90;;;2.00;;
75062;SDS011;63981;51.052;13.754;2023-08-30T07:58:56;3.95;;;2.03;;
75062;SDS011;63981;51.052;13.754;2023-08-30T08:01:22;2.70;;;2.08;;
75062;SDS011;63981;51.052;13.754;2023-08-30T08:03:48;2.25;;;1.70;;
75062;SDS011;63981;51.052;13.754;2023-08-30T08:06:14;3.67;;;1.80;;
75062;SDS011;63981;51.052;13.754;2023-08-30T08:08:41;2.38;;;1.70;;
75062;SDS011;63981;51.052;13.754;2023-08-30T08:11:07;3.22;;;1.92;;
75062;SDS011;63981;51.052;13.754;2023-08-30T08:13:33;2.55;;;2.08;;
75062;SDS011;63981;51.052;13.754;2023-08-30T08:15:59;3.40;;;2.00;;
75062;SDS011;63981;51.052;13.754;2023-08-30T08:18:25;3.40;;;2.03;;
75062;SDS011;63981;51.052;13.754;2023-08-30T08:20:52;3.50;;;2.15;;
75062;SDS011;63981;51.052;13.754;2023-08-30T08:23:18;2.88;;;1.75;;
75062;SDS011;63981;51.052;13.754;2023-08-30T08:25:44;3.85;;;2.10;;
75062;SDS011;63981;51.052;13.754;2023-08-30T08:28:10;2.13;;;1.63;;
75062;SDS011;63981;51.052;13.754;2023-08-30T08:30:36;2.38;;;1.77;;
75062;SDS011;63981;51.052;13.754;2023-08-30T08:33:03;4.47;;;1.80;;
75062;SDS011;63981;51.052;13.754;2023-08-30T08:35:29;3.00;;;1.85;;
75062;SDS011;63981;51.052;13.754;2023-08-30T08:37:55;2.72;;;1.60;;
75062;SDS011;63981;51.052;13.754;2023-08-30T08:40:21;3.03;;;1.73;;
75062;SDS011;63981;51.052;13.754;2023-08-30T08:42:48;2.22;;;1.50;;
75062;SDS011;63981;51.052;13.754;2023-08-30T08:45:16;2.50;;;1.58;;
75062;SDS011;63981;51.052;13.754;2023-08-30T08:47:45;2.35;;;1.80;;
75062;SDS011;63981;51.052;13.754;2023-08-30T08:50:11;2.25;;;1.83;;
75062;SDS011;63981;51.052;13.754;2023-08-30T08:52:38;1.90;;;1.58;;
75062;SDS011;63981;51.052;13.754;2023-08-30T08:55:04;2.33;;;1.75;;
75062;SDS011;63981;51.052;13.754;2023-08-30T08:57:30;3.10;;;1.77;;
75062;SDS011;63981;51.052;13.754;2023-08-30T08:59:59;2.97;;;1.70;;
75062;SDS011;63981;51.052;13.754;2023-08-30T09:02:25;3.72;;;1.50;;
75062;SDS011;63981;51.052;13.754;2023-08-30T09:04:54;2.22;;;1.40;;
75062;SDS011;63981;51.052;13.754;2023-08-30T09:07:21;3.42;;;1.52;;
75062;SDS011;63981;51.052;13.754;2023-08-30T09:09:47;2.60;;;2.25;;
75062;SDS011;63981;51.052;13.754;2023-08-30T09:12:13;1.77;;;1.02;;
75062;SDS011;63981;51.052;13.754;2023-08-30T09:14:40;3.97;;;1.50;;
75062;SDS011;63981;51.052;13.754;2023-08-30T09:17:06;3.15;;;1.55;;
75062;SDS011;63981;51.052;13.754;2023-08-30T09:19:32;3.65;;;1.60;;
75062;SDS011;63981;51.052;13.754;2023-08-30T09:21:58;3.00;;;1.80;;
75062;SDS011;63981;51.052;13.754;2023-08-30T09:24:25;3.10;;;1.23;;
75062;SDS011;63981;51.052;13.754;2023-08-30T09:26:52;4.40;;;1.30;;
75062;SDS011;63981;51.052;13.754;2023-08-30T09:29:19;2.42;;;1.60;;
75062;SDS011;63981;51.052;13.754;2023-08-30T09:31:50;2.28;;;1.40;;
75062;SDS011;63981;51.052;13.754;2023-08-30T09:34:21;2.17;;;1.48;;
75062;SDS011;63981;51.052;13.754;2023-08-30T09:36:51;3.15;;;1.65;;
75062;SDS011;63981;51.052;13.754;2023-08-30T09:39:17;2.20;;;1.30;;
75062;SDS011;63981;51.052;13.754;2023-08-30T09:41:48;2.17;;;1.50;;
75062;SDS011;63981;51.052;13.754;2023-08-30T09:44:18;2.30;;;1.35;;
75062;SDS011;63981;51.052;13.754;2023-08-30T09:46:48;2.03;;;1.35;;
75062;SDS011;63981;51.052;13.754;2023-08-30T09:49:18;2.20;;;1.33;;
75062;SDS011;63981;51.052;13.754;2023-08-30T09:51:49;1.85;;;1.20;;
75062;SDS011;63981;51.052;13.754;2023-08-30T09:54:18;2.55;;;1.23;;
75062;SDS011;63981;51.052;13.754;2023-08-30T09:59:12;5.07;;;1.52;;
75062;SDS011;63981;51.052;13.754;2023-08-30T10:01:41;2.95;;;1.58;;
75062;SDS011;63981;51.052;13.754;2023-08-30T10:04:09;3.33;;;1.05;;
75062;SDS011;63981;51.052;13.754;2023-08-30T10:06:38;3.83;;;1.42;;
75062;SDS011;63981;51.052;13.754;2023-08-30T10:09:05;2.42;;;1.30;;
75062;SDS011;63981;51.052;13.754;2023-08-30T10:11:34;3.10;;;1.05;;
75062;SDS011;63981;51.052;13.754;2023-08-30T10:14:06;2.00;;;1.23;;
75062;SDS011;63981;51.052;13.754;2023-08-30T10:16:38;2.15;;;1.30;;
75062;SDS011;63981;51.052;13.754;2023-08-30T10:19:14;4.00;;;1.17;;
75062;SDS011;63981;51.052;13.754;2023-08-30T10:22:03;1.60;;;1.40;;
75062;SDS011;63981;51.052;13.754;2023-08-30T10:27:18;2.45;;;1.65;;
75062;SDS011;63981;51.052;13.754;2023-08-30T10:29:45;1.88;;;1.30;;
75062;SDS011;63981;51.052;13.754;2023-08-30T10:32:19;1.90;;;1.00;;
75062;SDS011;63981;51.052;13.754;2023-08-30T10:34:50;2.80;;;1.13;;
75062;SDS011;63981;51.052;13.754;2023-08-30T10:37:22;2.65;;;1.17;;
75062;SDS011;63981;51.052;13.754;2023-08-30T10:39:52;5.72;;;1.15;;
75062;SDS011;63981;51.052;13.754;2023-08-30T10:42:21;2.95;;;1.40;;
75062;SDS011;63981;51.052;13.754;2023-08-30T10:44:56;3.90;;;1.35;;
75062;SDS011;63981;51.052;13.754;2023-08-30T10:47:26;2.72;;;1.30;;
75062;SDS011;63981;51.052;13.754;2023-08-30T10:49:56;1.80;;;0.90;;
75062;SDS011;63981;51.052;13.754;2023-08-30T10:52:27;1.30;;;1.10;;
75062;SDS011;63981;51.052;13.754;2023-08-30T10:55:06;2.22;;;1.00;;
75062;SDS011;63981;51.052;13.754;2023-08-30T10:57:35;0.73;;;0.50;;
75062;SDS011;63981;51.052;13.754;2023-08-30T11:00:07;3.88;;;0.82;;
75062;SDS011;63981;51.052;13.754;2023-08-30T11:02:38;1.52;;;0.70;;
75062;SDS011;63981;51.052;13.754;2023-08-30T11:05:08;1.58;;;0.80;;
75062;SDS011;63981;51.052;13.754;2023-08-30T11:07:35;2.35;;;0.88;;
75062;SDS011;63981;51.052;13.754;2023-08-30T11:10:04;2.47;;;0.88;;
75062;SDS011;63981;51.052;13.754;2023-08-30T11:12:32;2.15;;;1.05;;
75062;SDS011;63981;51.052;13.754;2023-08-30T11:14:59;1.27;;;0.85;;
75062;SDS011;63981;51.052;13.754;2023-08-30T11:17:26;1.42;;;0.75;;
75062;SDS011;63981;51.052;13.754;2023-08-30T11:20:08;2.25;;;1.00;;
75062;SDS011;63981;51.052;13.754;2023-08-30T11:22:39;1.67;;;1.00;;
75062;SDS011;63981;51.052;13.754;2023-08-30T11:25:08;1.10;;;0.90;;
75062;SDS011;63981;51.052;13.754;2023-08-30T11:27:35;1.52;;;1.00;;
75062;SDS011;63981;51.052;13.754;2023-08-30T11:30:02;2.15;;;1.00;;
75062;SDS011;63981;51.052;13.754;2023-08-30T11:32:38;2.00;;;1.30;;
75062;SDS011;63981;51.052;13.754;2023-08-30T11:35:05;2.47;;;1.13;;
75062;SDS011;63981;51.052;13.754;2023-08-30T11:37:33;1.42;;;1.00;;
75062;SDS011;63981;51.052;13.754;2023-08-30T11:40:03;1.23;;;0.88;;
75062;SDS011;63981;51.052;13.754;2023-08-30T11:42:31;2.35;;;0.80;;
75062;SDS011;63981;51.052;13.754;2023-08-30T11:44:58;3.20;;;1.00;;
75062;SDS011;63981;51.052;13.754;2023-08-30T11:47:28;1.58;;;0.85;;
75062;SDS011;63981;51.052;13.754;2023-08-30T11:49:55;1.50;;;0.80;;
75062;SDS011;63981;51.052;13.754;2023-08-30T11:52:23;1.55;;;1.05;;
75062;SDS011;63981;51.052;13.754;2023-08-30T11:54:50;1.40;;;0.90;;
75062;SDS011;63981;51.052;13.754;2023-08-30T11:57:17;2.65;;;1.05;;
75062;SDS011;63981;51.052;13.754;2023-08-30T11:59:43;1.70;;;0.85;;
75062;SDS011;63981;51.052;13.754;2023-08-30T12:02:11;2.78;;;0.70;;
75062;SDS011;63981;51.052;13.754;2023-08-30T12:04:40;1.08;;;0.70;;
75062;SDS011;63981;51.052;13.754;2023-08-30T12:07:20;1.13;;;0.70;;
75062;SDS011;63981;51.052;13.754;2023-08-30T12:09:48;0.65;;;0.50;;
75062;SDS011;63981;51.052;13.754;2023-08-30T12:12:14;0.93;;;0.60;;
75062;SDS011;63981;51.052;13.754;2023-08-30T12:14:40;0.80;;;0.45;;
75062;SDS011;63981;51.052;13.754;2023-08-30T12:17:08;1.02;;;0.63;;
75062;SDS011;63981;51.052;13.754;2023-08-30T12:19:34;0.93;;;0.57;;
75062;SDS011;63981;51.052;13.754;2023-08-30T12:22:04;1.02;;;0.60;;
75062;SDS011;63981;51.052;13.754;2023-08-30T12:24:43;0.70;;;0.65;;
75062;SDS011;63981;51.052;13.754;2023-08-30T12:27:09;2.92;;;0.95;;
75062;SDS011;63981;51.052;13.754;2023-08-30T12:29:35;2.65;;;0.70;;
75062;SDS011;63981;51.052;13.754;2023-08-30T12:32:01;1.88;;;0.70;;
75062;SDS011;63981;51.052;13.754;2023-08-30T12:34:28;1.83;;;0.80;;
75062;SDS011;63981;51.052;13.754;2023-08-30T12:36:54;1.35;;;0.75;;
75062;SDS011;63981;51.052;13.754;2023-08-30T12:39:20;0.70;;;0.52;;
75062;SDS011;63981;51.052;13.754;2023-08-30T12:41:47;1.30;;;1.00;;
75062;SDS011;63981;51.052;13.754;2023-08-30T12:44:13;0.90;;;0.70;;
75062;SDS011;63981;51.052;13.754;2023-08-30T12:46:39;1.58;;;0.82;;
75062;SDS011;63981;51.052;13.754;2023-08-30T12:49:05;1.27;;;0.80;;
75062;SDS011;63981;51.052;13.754;2023-08-30T12:51:31;2.65;;;1.00;;
75062;SDS011;63981;51.052;13.754;2023-08-30T12:53:57;1.40;;;0.70;;
75062;SDS011;63981;51.052;13.754;2023-08-30T12:56:23;1.05;;;0.70;;
75062;SDS011;63981;51.052;13.754;2023-08-30T12:58:49;1.38;;;0.80;;
75062;SDS011;63981;51.052;13.754;2023-08-30T13:01:17;3.17;;;1.95;;
75062;SDS011;63981;51.052;13.754;2023-08-30T13:03:43;1.48;;;1.20;;
75062;SDS011;63981;51.052;13.754;2023-08-30T13:06:09;4.05;;;1.23;;
75062;SDS011;63981;51.052;13.754;2023-08-30T13:08:35;1.45;;;1.05;;
75062;SDS011;63981;51.052;13.754;2023-08-30T13:11:01;2.88;;;0.95;;
75062;SDS011;63981;51.052;13.754;2023-08-30T13:13:28;1.40;;;0.63;;
75062;SDS011;63981;51.052;13.754;2023-08-30T13:15:54;1.20;;;0.80;;
75062;SDS011;63981;51.052;13.754;2023-08-30T13:18:20;2.20;;;0.90;;
75062;SDS011;63981;51.052;13.754;2023-08-30T13:20:47;1.30;;;0.70;;
75062;SDS011;63981;51.052;13.754;2023-08-30T13:23:13;1.58;;;0.55;;
75062;SDS011;63981;51.052;13.754;2023-08-30T13:25:39;4.30;;;0.80;;
75062;SDS011;63981;51.052;13.754;2023-08-30T13:28:06;2.35;;;0.80;;
75062;SDS011;63981;51.052;13.754;2023-08-30T13:30:33;1.30;;;0.60;;
75062;SDS011;63981;51.052;13.754;2023-08-30T13:32:59;1.05;;;0.50;;
75062;SDS011;63981;51.052;13.754;2023-08-30T13:35:26;1.27;;;0.60;;
75062;SDS011;63981;51.052;13.754;2023-08-30T13:37:52;2.05;;;0.60;;
75062;SDS011;63981;51.052;13.754;2023-08-30T13:40:18;1.63;;;0.43;;
75062;SDS011;63981;51.052;13.754;2023-08-30T13:42:44;1.88;;;0.70;;
75062;SDS011;63981;51.052;13.754;2023-08-30T13:45:10;0.88;;;0.50;;
75062;SDS011;63981;51.052;13.754;2023-08-30T13:47:37;1.20;;;0.85;;
75062;SDS011;63981;51.052;13.754;2023-08-30T13:50:03;1.83;;;0.80;;
75062;SDS011;63981;51.052;13.754;2023-08-30T13:52:31;0.98;;;0.52;;
75062;SDS011;63981;51.052;13.754;2023-08-30T13:54:58;1.10;;;0.50;;
75062;SDS011;63981;51.052;13.754;2023-08-30T13:57:24;1.80;;;0.52;;
75062;SDS011;63981;51.052;13.754;2023-08-30T13:59:50;2.13;;;0.60;;
75062;SDS011;63981;51.052;13.754;2023-08-30T14:02:16;1.50;;;0.60;;
75062;SDS011;63981;51.052;13.754;2023-08-30T14:04:43;4.25;;;0.90;;
75062;SDS011;63981;51.052;13.754;2023-08-30T14:07:09;2.05;;;0.57;;
75062;SDS011;63981;51.052;13.754;2023-08-30T14:09:36;2.35;;;0.63;;
75062;SDS011;63981;51.052;13.754;2023-08-30T14:12:03;2.03;;;0.70;;
75062;SDS011;63981;51.052;13.754;2023-08-30T14:14:29;1.77;;;0.73;;
75062;SDS011;63981;51.052;13.754;2023-08-30T14:16:55;1.20;;;0.70;;
75062;SDS011;63981;51.052;13.754;2023-08-30T14:19:21;1.77;;;0.70;;
75062;SDS011;63981;51.052;13.754;2023-08-30T14:21:47;4.18;;;1.00;;
75062;SDS011;63981;51.052;13.754;2023-08-30T14:24:13;1.00;;;0.60;;
75062;SDS011;63981;51.052;13.754;2023-08-30T14:26:40;0.90;;;0.68;;
75062;SDS011;63981;51.052;13.754;2023-08-30T14:29:06;1.05;;;0.80;;
75062;SDS011;63981;51.052;13.754;2023-08-30T14:31:32;1.70;;;0.60;;
75062;SDS011;63981;51.052;13.754;2023-08-30T14:33:58;1.42;;;0.75;;
75062;SDS011;63981;51.052;13.754;2023-08-30T14:36:24;0.85;;;0.52;;
75062;SDS011;63981;51.052;13.754;2023-08-30T14:38:50;1.00;;;0.60;;
75062;SDS011;63981;51.052;13.754;2023-08-30T14:41:16;1.50;;;0.60;;
75062;SDS011;63981;51.052;13.754;2023-08-30T14:43:43;1.45;;;0.70;;
75062;SDS011;63981;51.052;13.754;2023-08-30T14:46:09;1.35;;;0.85;;
75062;SDS011;63981;51.052;13.754;2023-08-30T14:48:36;1.98;;;0.82;;